Time;durP1;ratioP1;P1;durP2;ratioP2;P2;SDS_P1;SDS_P2;PMS_P1;PMS_P2;Temp;Humidity;BMP_temperature;BMP_pressure;BME280_temperature;BME280_humidity;BME280_pressure;Samples;Min_cycle;Max_cycle;Signal;HPM_P1;HPM_P2
2023/11/29 00:01:23;;;;;;;6.13;4.70;;;2.80;99.90;;;;;;5113231;27;20627;-76
2023/11/29 00:03:50;;;;;;;6.40;5.03;;;2.80;99.90;;;;;;5114008;27;20212;-77
2023/11/29 00:06:15;;;;;;;7.55;5.93;;;2.80;99.90;;;;;;5096718;27;20177;-76
2023/11/29 00:11:10;;;;;;;5.75;4.85;;;2.80;99.90;;;;;;5050485;28;20565;-76
2023/11/29 00:13:36;;;;;;;5.53;4.73;;;2.80;99.90;;;;;;5052269;28;20175;-76
2023/11/29 00:16:01;;;;;;;5.63;4.47;;;2.80;99.90;;;;;;5019624;28;20595;-77
2023/11/29 00:18:27;;;;;;;5.83;5.23;;;2.80;99.90;;;;;;5053321;28;20622;-77
2023/11/29 00:20:53;;;;;;;8.97;5.23;;;2.80;99.90;;;;;;5037798;28;20623;-77
2023/11/29 00:23:18;;;;;;;5.13;4.07;;;2.80;99.90;;;;;;5033100;28;20181;-77
2023/11/29 00:25:44;;;;;;;7.13;4.80;;;2.80;99.90;;;;;;5032955;28;20185;-77
2023/11/29 00:28:10;;;;;;;7.70;5.17;;;2.80;99.90;;;;;;5032363;28;20552;-76
2023/11/29 00:30:36;;;;;;;7.80;5.13;;;2.80;99.90;;;;;;5050649;28;20195;-76
2023/11/29 00:33:02;;;;;;;6.00;4.93;;;2.80;99.90;;;;;;5016286;28;20172;-76
2023/11/29 00:35:28;;;;;;;6.50;4.75;;;2.80;99.90;;;;;;5032479;28;20189;-76
2023/11/29 00:37:54;;;;;;;6.17;4.90;;;2.80;99.90;;;;;;5032555;28;20176;-76
2023/11/29 00:40:20;;;;;;;7.53;5.67;;;2.80;99.90;;;;;;5050706;28;20674;-76
2023/11/29 00:42:45;;;;;;;6.23;4.13;;;2.90;99.90;;;;;;5032469;28;20208;-76
2023/11/29 00:45:11;;;;;;;7.07;5.53;;;2.90;99.90;;;;;;5053196;28;20586;-75
2023/11/29 00:47:37;;;;;;;5.37;4.10;;;2.90;99.90;;;;;;5050144;28;20172;-76
2023/11/29 00:50:03;;;;;;;7.23;5.13;;;2.90;99.90;;;;;;5032842;28;20643;-75
2023/11/29 00:52:29;;;;;;;5.68;4.13;;;2.90;99.90;;;;;;5032764;28;20169;-77
2023/11/29 00:54:54;;;;;;;5.47;4.23;;;3.00;99.90;;;;;;5016435;28;20207;-76
2023/11/29 00:57:20;;;;;;;6.67;5.27;;;3.00;99.90;;;;;;5017435;28;20544;-75
2023/11/29 00:59:46;;;;;;;6.77;4.93;;;3.00;99.90;;;;;;5032484;28;20204;-74
2023/11/29 01:02:12;;;;;;;6.87;5.20;;;3.10;99.90;;;;;;5032348;28;20208;-77
2023/11/29 01:04:37;;;;;;;8.00;4.90;;;3.10;99.90;;;;;;5032638;28;20956;-77
2023/11/29 01:07:03;;;;;;;6.77;4.77;;;3.10;99.90;;;;;;5016248;28;20180;-77
2023/11/29 01:09:29;;;;;;;5.20;4.70;;;3.20;99.90;;;;;;5015579;28;20662;-77
2023/11/29 01:11:55;;;;;;;7.50;4.90;;;3.20;99.90;;;;;;5032329;28;20594;-77
2023/11/29 01:14:21;;;;;;;8.15;5.75;;;3.30;99.90;;;;;;5032636;28;20583;-77
2023/11/29 01:16:47;;;;;;;5.27;4.73;;;3.30;99.90;;;;;;5050303;28;20169;-77
2023/11/29 01:19:13;;;;;;;4.20;3.67;;;3.30;99.90;;;;;;5015683;28;20622;-77
2023/11/29 01:21:40;;;;;;;6.45;4.72;;;3.40;99.90;;;;;;5032315;28;20619;-78
2023/11/29 01:24:06;;;;;;;5.63;4.13;;;3.40;99.90;;;;;;5032547;28;20173;-75
2023/11/29 01:26:33;;;;;;;5.50;4.30;;;3.50;99.90;;;;;;5015542;28;20178;-75
2023/11/29 01:28:58;;;;;;;5.05;3.75;;;3.60;99.90;;;;;;5015481;28;20211;-75
2023/11/29 01:31:27;;;;;;;5.83;4.17;;;3.60;99.90;;;;;;5015581;28;20169;-75
2023/11/29 01:33:53;;;;;;;5.20;4.43;;;3.60;99.90;;;;;;5036486;28;20623;-75
2023/11/29 01:36:19;;;;;;;8.15;4.32;;;3.70;99.90;;;;;;5050266;28;20590;-75
2023/11/29 01:38:45;;;;;;;4.90;4.03;;;3.80;99.90;;;;;;5032034;28;20177;-75
2023/11/29 01:41:11;;;;;;;6.33;4.30;;;3.80;99.90;;;;;;5050057;28;20183;-75
2023/11/29 01:43:37;;;;;;;6.07;4.50;;;3.90;99.90;;;;;;5015459;28;20177;-75
2023/11/29 01:46:04;;;;;;;6.78;4.28;;;3.90;99.90;;;;;;5031735;28;20629;-75
2023/11/29 01:48:31;;;;;;;6.13;4.50;;;3.90;99.90;;;;;;5049715;28;20211;-75
2023/11/29 01:50:57;;;;;;;7.22;4.90;;;3.90;99.90;;;;;;5031879;28;20185;-75
2023/11/29 01:53:27;;;;;;;5.22;3.88;;;3.90;99.90;;;;;;5031877;28;20173;-75
2023/11/29 01:55:53;;;;;;;6.68;4.50;;;3.90;99.90;;;;;;5031954;28;20603;-75
2023/11/29 01:58:21;;;;;;;5.45;3.78;;;3.90;99.90;;;;;;5033090;28;20259;-75
2023/11/29 02:00:48;;;;;;;6.00;4.32;;;3.80;99.90;;;;;;5018865;28;20192;-75
2023/11/29 02:03:15;;;;;;;6.10;4.45;;;3.80;99.90;;;;;;5053317;28;20169;-76
2023/11/29 02:05:41;;;;;;;5.18;4.18;;;3.70;99.90;;;;;;5018681;28;20626;-76
2023/11/29 02:08:07;;;;;;;6.57;3.92;;;3.70;99.90;;;;;;5034573;28;20180;-77
2023/11/29 02:10:34;;;;;;;4.03;3.13;;;3.70;99.90;;;;;;5038831;28;20817;-77
2023/11/29 02:13:00;;;;;;;4.63;4.18;;;3.70;99.90;;;;;;5052977;28;20612;-77
2023/11/29 02:15:27;;;;;;;5.60;4.82;;;3.60;99.90;;;;;;5019069;28;20173;-77
2023/11/29 02:17:52;;;;;;;7.45;5.28;;;3.60;99.90;;;;;;5018612;28;20165;-77
2023/11/29 02:20:18;;;;;;;5.73;4.70;;;3.50;99.90;;;;;;5018382;28;20615;-77
2023/11/29 02:23:01;;;;;;;7.65;4.75;;;3.50;99.90;;;;;;5018450;28;20189;-77
2023/11/29 02:25:26;;;;;;;6.03;4.93;;;3.50;99.90;;;;;;5018865;28;20226;-77
2023/11/29 02:27:52;;;;;;;5.83;3.87;;;3.40;99.90;;;;;;5018450;28;20174;-76
2023/11/29 02:30:18;;;;;;;9.13;5.00;;;3.40;99.90;;;;;;5034590;28;20244;-76
2023/11/29 02:32:44;;;;;;;4.77;4.13;;;3.40;99.90;;;;;;5001878;28;20184;-76
2023/11/29 02:35:09;;;;;;;5.17;3.87;;;3.40;99.90;;;;;;5018655;28;20676;-76
2023/11/29 02:37:35;;;;;;;5.67;3.67;;;3.40;99.90;;;;;;5034696;28;21079;-76
2023/11/29 02:40:01;;;;;;;5.07;4.10;;;3.40;99.90;;;;;;5018068;28;20697;-75
2023/11/29 02:42:27;;;;;;;5.85;3.92;;;3.40;99.90;;;;;;5018238;28;20208;-76
2023/11/29 02:44:53;;;;;;;5.20;4.30;;;3.40;99.90;;;;;;5017937;28;20626;-74
2023/11/29 02:47:19;;;;;;;6.10;4.30;;;3.30;99.90;;;;;;5021470;28;20278;-74
2023/11/29 02:49:44;;;;;;;5.90;4.67;;;3.30;99.90;;;;;;5018485;28;20205;-74
2023/11/29 02:52:10;;;;;;;5.67;4.07;;;3.30;99.90;;;;;;5052324;28;20515;-74
2023/11/29 02:54:36;;;;;;;6.73;4.50;;;3.30;99.90;;;;;;5018142;28;20287;-74
2023/11/29 02:57:02;;;;;;;6.35;5.18;;;3.20;99.90;;;;;;5034616;28;20578;-74
2023/11/29 02:59:28;;;;;;;6.63;4.47;;;3.20;99.90;;;;;;5017857;28;20217;-75
2023/11/29 03:01:54;;;;;;;5.90;4.27;;;3.20;99.90;;;;;;5051520;28;20231;-75
2023/11/29 03:04:19;;;;;;;6.23;4.30;;;3.20;99.90;;;;;;5034544;28;20181;-74
2023/11/29 03:06:45;;;;;;;5.63;3.90;;;3.20;99.90;;;;;;5034489;28;20181;-74
2023/11/29 03:09:11;;;;;;;6.53;4.30;;;3.10;99.90;;;;;;5033623;28;20288;-75
2023/11/29 03:11:37;;;;;;;7.77;4.83;;;3.10;99.90;;;;;;5017491;28;20177;-75
2023/11/29 03:14:02;;;;;;;6.80;4.60;;;3.20;99.90;;;;;;5034265;28;20262;-75
2023/11/29 03:16:28;;;;;;;6.07;4.00;;;3.10;99.90;;;;;;5017710;28;20814;-75
2023/11/29 03:18:54;;;;;;;4.97;4.47;;;3.10;99.90;;;;;;5033850;28;20646;-75
2023/11/29 03:21:20;;;;;;;5.30;4.20;;;3.10;99.90;;;;;;5017085;28;20699;-75
2023/11/29 03:23:45;;;;;;;5.63;4.63;;;3.10;99.90;;;;;;5034056;28;20239;-75
2023/11/29 03:26:11;;;;;;;6.03;4.67;;;3.10;99.90;;;;;;5020369;28;20276;-75
2023/11/29 03:28:37;;;;;;;4.73;3.70;;;3.10;99.90;;;;;;5033668;28;20666;-75
2023/11/29 03:31:03;;;;;;;5.63;4.40;;;3.10;99.90;;;;;;5000853;28;20583;-74
2023/11/29 03:33:28;;;;;;;7.57;5.10;;;3.10;99.90;;;;;;5017101;28;20619;-75
2023/11/29 03:35:56;;;;;;;6.90;4.50;;;3.10;99.90;;;;;;5017303;28;20591;-75
2023/11/29 03:38:22;;;;;;;7.35;5.13;;;3.10;99.90;;;;;;5017305;28;20184;-75
2023/11/29 03:40:47;;;;;;;6.60;4.60;;;3.10;99.90;;;;;;5033765;28;20574;-75
2023/11/29 03:43:13;;;;;;;9.17;4.53;;;3.10;99.90;;;;;;5016876;28;20599;-75
2023/11/29 03:45:39;;;;;;;5.70;4.90;;;3.10;99.90;;;;;;5033834;28;20173;-75
2023/11/29 03:48:05;;;;;;;7.63;4.90;;;3.20;99.90;;;;;;5033097;28;21149;-76
2023/11/29 03:50:30;;;;;;;6.65;4.60;;;3.30;99.90;;;;;;5033239;28;20658;-76
2023/11/29 03:52:56;;;;;;;6.70;5.00;;;3.30;99.90;;;;;;5033240;28;20176;-75
2023/11/29 03:55:22;;;;;;;5.97;5.37;;;3.40;99.90;;;;;;5017280;28;20314;-75
2023/11/29 03:57:48;;;;;;;6.43;5.33;;;3.40;99.90;;;;;;5016398;28;20176;-75
2023/11/29 04:00:14;;;;;;;7.50;5.30;;;3.40;99.90;;;;;;5051543;28;20275;-78
2023/11/29 04:02:39;;;;;;;7.50;5.30;;;3.50;99.90;;;;;;5026261;28;20184;-78
2023/11/29 04:05:05;;;;;;;7.27;6.10;;;3.50;99.90;;;;;;5051651;28;20607;-78
2023/11/29 04:07:31;;;;;;;8.25;5.75;;;3.60;99.90;;;;;;5033744;28;20223;-78
2023/11/29 04:09:57;;;;;;;6.67;4.97;;;3.60;99.90;;;;;;5016870;28;20200;-78
2023/11/29 04:12:24;;;;;;;8.10;5.77;;;3.60;99.90;;;;;;5033630;28;20591;-78
2023/11/29 04:14:49;;;;;;;7.20;5.68;;;3.70;99.90;;;;;;5051496;28;20173;-78
2023/11/29 04:17:15;;;;;;;8.30;5.93;;;3.80;99.90;;;;;;5033393;28;20239;-78
2023/11/29 04:19:41;;;;;;;6.80;5.40;;;3.80;99.90;;;;;;5016868;28;20205;-78
2023/11/29 04:22:07;;;;;;;7.47;6.00;;;3.80;99.90;;;;;;5032913;28;20188;-78
2023/11/29 04:24:33;;;;;;;10.40;5.60;;;3.90;99.90;;;;;;5033495;28;20587;-78
2023/11/29 04:26:59;;;;;;;6.88;5.38;;;4.00;99.90;;;;;;5033465;28;20504;-78
2023/11/29 04:29:28;;;;;;;7.50;5.63;;;4.00;99.90;;;;;;5016809;28;20208;-78
2023/11/29 04:31:54;;;;;;;7.10;4.70;;;4.10;99.90;;;;;;5016942;28;20889;-78
2023/11/29 04:34:21;;;;;;;7.77;5.53;;;4.10;99.90;;;;;;5016862;28;20172;-79
2023/11/29 04:36:48;;;;;;;7.63;6.10;;;4.10;99.90;;;;;;5016645;28;20575;-78
2023/11/29 04:39:15;;;;;;;6.30;4.90;;;4.20;99.90;;;;;;5005596;28;20678;-78
2023/11/29 04:41:41;;;;;;;8.45;5.05;;;4.20;99.90;;;;;;5033191;28;20223;-78
2023/11/29 04:44:08;;;;;;;6.27;5.07;;;4.20;99.90;;;;;;5016699;28;20612;-78
2023/11/29 04:46:34;;;;;;;6.63;5.13;;;4.30;99.90;;;;;;5032984;28;20595;-78
2023/11/29 04:49:01;;;;;;;10.60;6.40;;;4.30;99.90;;;;;;5016096;28;20205;-78
2023/11/29 04:51:27;;;;;;;8.27;5.20;;;4.40;99.90;;;;;;5050701;28;20872;-78
2023/11/29 04:53:53;;;;;;;6.13;5.40;;;4.40;99.90;;;;;;5032771;28;20169;-77
2023/11/29 04:56:19;;;;;;;6.47;5.30;;;4.50;99.90;;;;;;5050770;28;20996;-77
2023/11/29 04:58:46;;;;;;;7.00;5.53;;;4.60;99.90;;;;;;5050417;28;20238;-77
2023/11/29 05:01:12;;;;;;;5.57;4.57;;;4.60;99.90;;;;;;5050507;28;20183;-78
2023/11/29 05:03:39;;;;;;;6.35;4.53;;;4.60;99.90;;;;;;5042185;28;20534;-78
2023/11/29 05:06:06;;;;;;;6.20;4.82;;;4.70;99.90;;;;;;5032641;28;20272;-78
2023/11/29 05:08:32;;;;;;;6.50;5.05;;;4.70;99.90;;;;;;5032473;28;20451;-77
2023/11/29 05:11:04;;;;;;;7.73;5.80;;;4.80;99.90;;;;;;5032543;28;20567;-77
2023/11/29 05:13:33;;;;;;;9.10;6.15;;;4.80;99.90;;;;;;5032483;28;20588;-76
2023/11/29 05:16:00;;;;;;;8.23;5.70;;;4.80;99.90;;;;;;5054266;28;20250;-77
2023/11/29 05:18:26;;;;;;;6.28;5.13;;;4.90;99.90;;;;;;5032719;28;20245;-77
2023/11/29 05:20:52;;;;;;;6.60;4.72;;;4.90;99.90;;;;;;5050297;28;20783;-77
2023/11/29 05:23:18;;;;;;;5.30;4.80;;;4.90;99.90;;;;;;5015884;28;20259;-77
2023/11/29 05:25:44;;;;;;;6.40;5.03;;;4.90;99.90;;;;;;5032398;28;20587;-77
2023/11/29 05:28:09;;;;;;;6.47;5.40;;;4.90;99.90;;;;;;5050252;28;20184;-77
2023/11/29 05:30:35;;;;;;;6.67;4.33;;;4.90;99.90;;;;;;5050259;28;20208;-77
2023/11/29 05:33:03;;;;;;;7.30;4.83;;;4.90;99.90;;;;;;5033036;28;20234;-77
2023/11/29 05:35:32;;;;;;;8.45;5.50;;;4.90;99.90;;;;;;5035979;28;20173;-79
2023/11/29 05:37:57;;;;;;;6.03;4.82;;;4.90;99.90;;;;;;5053839;28;20177;-78
2023/11/29 05:40:23;;;;;;;7.80;5.13;;;4.90;99.90;;;;;;5035929;28;20704;-78
2023/11/29 05:42:49;;;;;;;9.20;4.73;;;4.90;99.90;;;;;;5053776;28;20665;-78
2023/11/29 05:45:14;;;;;;;7.67;5.30;;;4.80;99.90;;;;;;5053614;28;20591;-77
2023/11/29 05:47:40;;;;;;;9.53;4.67;;;4.80;99.90;;;;;;5035802;28;20187;-77
2023/11/29 05:50:07;;;;;;;6.93;5.03;;;4.80;99.90;;;;;;5053756;28;20209;-77
2023/11/29 05:52:33;;;;;;;7.32;4.80;;;4.70;99.90;;;;;;5057514;28;20173;-78
2023/11/29 05:55:01;;;;;;;4.83;3.60;;;4.70;99.90;;;;;;5039382;28;20592;-77
2023/11/29 05:57:27;;;;;;;6.63;5.03;;;4.70;99.90;;;;;;5036050;28;20607;-77
2023/11/29 05:59:58;;;;;;;7.37;6.50;;;4.60;99.90;;;;;;5035607;28;20239;-77
2023/11/29 06:02:23;;;;;;;6.60;5.65;;;4.60;99.90;;;;;;5035784;28;20591;-78
2023/11/29 06:04:49;;;;;;;12.10;5.53;;;4.60;99.90;;;;;;5035942;28;20203;-78
2023/11/29 06:07:15;;;;;;;6.23;4.87;;;4.60;99.90;;;;;;5035944;28;20268;-77
2023/11/29 06:09:40;;;;;;;8.23;5.50;;;4.60;99.90;;;;;;5053305;28;20223;-77
2023/11/29 06:12:09;;;;;;;7.40;4.90;;;4.60;99.90;;;;;;5053789;28;20169;-77
2023/11/29 06:14:35;;;;;;;10.27;5.00;;;4.60;99.90;;;;;;5035701;28;20180;-78
2023/11/29 06:17:01;;;;;;;6.33;4.83;;;4.60;99.90;;;;;;5033375;28;20540;-77
2023/11/29 06:19:27;;;;;;;6.23;5.07;;;4.60;99.90;;;;;;5035642;28;20204;-77
2023/11/29 06:21:54;;;;;;;7.25;4.75;;;4.60;99.90;;;;;;5018877;28;20280;-77
2023/11/29 06:24:20;;;;;;;9.40;4.90;;;4.60;99.90;;;;;;5018918;28;20256;-78
2023/11/29 06:26:45;;;;;;;8.25;4.43;;;4.70;99.90;;;;;;5035583;28;20656;-78
2023/11/29 06:29:11;;;;;;;7.43;4.73;;;4.70;99.90;;;;;;5053920;28;20338;-78
2023/11/29 06:31:37;;;;;;;5.90;4.40;;;4.70;99.90;;;;;;5056599;28;20181;-79
2023/11/29 06:34:05;;;;;;;6.13;5.00;;;4.80;99.90;;;;;;5035166;28;20226;-79
2023/11/29 06:36:31;;;;;;;6.57;4.53;;;4.80;99.90;;;;;;5035551;28;20268;-79
2023/11/29 06:38:57;;;;;;;7.68;4.50;;;4.90;99.90;;;;;;5035106;28;20256;-78
2023/11/29 06:41:23;;;;;;;7.70;4.80;;;4.90;99.90;;;;;;5034965;28;20268;-79
2023/11/29 06:43:48;;;;;;;5.80;4.43;;;4.90;99.90;;;;;;5052579;28;20217;-79
2023/11/29 06:46:14;;;;;;;5.20;4.37;;;4.90;99.90;;;;;;5018912;28;20184;-79
2023/11/29 06:48:40;;;;;;;5.70;4.00;;;4.90;99.90;;;;;;5035139;28;20205;-79
2023/11/29 06:51:05;;;;;;;9.10;5.00;;;4.90;99.90;;;;;;5057765;22;20200;-80
2023/11/29 06:53:33;;;;;;;5.67;4.57;;;4.90;99.90;;;;;;5029704;28;20226;-81
2023/11/29 06:55:59;;;;;;;5.82;4.78;;;5.00;99.90;;;;;;5053224;28;20668;-81
2023/11/29 06:58:25;;;;;;;5.67;4.60;;;5.00;99.90;;;;;;5054584;28;20275;-80
2023/11/29 07:00:53;;;;;;;5.80;4.30;;;5.00;99.90;;;;;;5072142;28;20933;-81
2023/11/29 07:03:19;;;;;;;4.70;3.35;;;5.00;99.90;;;;;;5052470;28;20211;-82
2023/11/29 07:05:45;;;;;;;4.40;3.58;;;5.00;99.90;;;;;;5053017;28;20658;-81
2023/11/29 07:08:12;;;;;;;7.10;4.30;;;5.00;99.90;;;;;;5052796;28;20169;-83
2023/11/29 07:10:37;;;;;;;6.35;4.15;;;5.00;99.90;;;;;;5053472;28;20227;-83
2023/11/29 07:13:05;;;;;;;7.27;4.67;;;5.00;99.90;;;;;;5032773;28;20596;-82
2023/11/29 07:15:31;;;;;;;6.55;4.22;;;5.00;99.90;;;;;;5055414;28;20195;-85
2023/11/29 07:17:57;;;;;;;4.80;3.70;;;5.00;99.90;;;;;;5037452;28;20639;-87
2023/11/29 07:20:24;;;;;;;8.10;4.30;;;5.00;99.90;;;;;;5037476;28;20180;-87
2023/11/29 07:22:49;;;;;;;6.05;4.63;;;4.90;99.90;;;;;;5055606;28;20185;-87
2023/11/29 07:25:15;;;;;;;6.67;4.77;;;4.90;99.90;;;;;;5037027;28;20644;-86
2023/11/29 07:27:41;;;;;;;6.43;5.10;;;4.80;99.90;;;;;;5023080;28;20178;-86
2023/11/29 07:30:08;;;;;;;8.63;6.03;;;4.80;99.90;;;;;;5042248;28;20210;-84
2023/11/29 07:32:34;;;;;;;10.48;5.05;;;4.80;99.90;;;;;;5054288;28;20262;-86
2023/11/29 07:34:59;;;;;;;9.43;5.60;;;4.70;99.90;;;;;;5047063;28;20614;-85
2023/11/29 07:37:26;;;;;;;8.17;5.23;;;4.70;99.90;;;;;;5038317;28;20165;-84
2023/11/29 07:39:52;;;;;;;7.55;5.25;;;4.70;99.90;;;;;;5063031;28;20185;-84
2023/11/29 07:42:18;;;;;;;7.53;5.03;;;4.60;99.90;;;;;;5030118;28;20227;-85
2023/11/29 07:44:46;;;;;;;9.20;5.95;;;4.70;99.90;;;;;;5062796;28;20173;-85
2023/11/29 07:47:12;;;;;;;6.97;4.45;;;4.70;99.90;;;;;;5046253;28;20287;-84
2023/11/29 07:49:38;;;;;;;7.60;4.57;;;4.70;99.90;;;;;;5059660;28;20228;-85
2023/11/29 07:52:06;;;;;;;6.18;5.10;;;4.70;99.90;;;;;;5038419;28;20244;-84
2023/11/29 07:54:31;;;;;;;7.50;6.35;;;4.80;99.90;;;;;;5060219;28;20204;-85
2023/11/29 07:56:57;;;;;;;7.17;5.77;;;4.90;99.90;;;;;;5056266;28;20176;-85
2023/11/29 07:59:23;;;;;;;5.60;4.93;;;5.00;99.90;;;;;;5036785;28;20169;-86
2023/11/29 08:01:49;;;;;;;8.77;5.83;;;5.10;99.90;;;;;;5019847;28;20208;-85
2023/11/29 08:04:15;;;;;;;8.00;5.57;;;5.20;99.90;;;;;;5064997;28;20234;-85
2023/11/29 08:06:41;;;;;;;8.23;4.95;;;5.30;99.90;;;;;;5055323;28;20180;-87
2023/11/29 08:09:08;;;;;;;7.30;5.00;;;5.40;99.90;;;;;;5025420;28;20204;-86
2023/11/29 08:11:36;;;;;;;6.07;5.20;;;5.40;99.90;;;;;;5052774;28;20187;-86
2023/11/29 08:14:02;;;;;;;6.25;5.03;;;5.50;99.90;;;;;;5051457;28;20173;-84
2023/11/29 08:16:31;;;;;;;5.93;4.35;;;5.50;99.90;;;;;;5056959;28;20173;-85
2023/11/29 08:18:59;;;;;;;8.30;4.88;;;5.60;99.90;;;;;;5035757;28;20185;-85
2023/11/29 08:21:25;;;;;;;11.20;6.18;;;5.60;99.90;;;;;;5044780;28;20185;-86
2023/11/29 08:23:51;;;;;;;10.33;5.70;;;5.60;99.90;;;;;;5019909;28;20249;-84
2023/11/29 08:26:17;;;;;;;6.07;5.13;;;5.60;99.90;;;;;;5051897;28;20683;-84
2023/11/29 08:28:43;;;;;;;8.20;6.10;;;5.70;99.90;;;;;;5051744;28;21058;-84
2023/11/29 08:31:08;;;;;;;6.87;5.00;;;5.70;99.90;;;;;;5035731;28;20248;-84
2023/11/29 08:33:35;;;;;;;6.00;5.30;;;5.70;99.90;;;;;;5034636;28;20657;-85
2023/11/29 08:36:03;;;;;;;6.43;5.25;;;5.80;99.90;;;;;;5021675;28;20181;-83
2023/11/29 08:38:29;;;;;;;8.15;4.65;;;5.80;99.90;;;;;;5056840;28;20169;-83
2023/11/29 08:40:55;;;;;;;7.28;5.07;;;5.90;99.90;;;;;;5071296;28;20181;-84
2023/11/29 08:43:21;;;;;;;7.00;6.30;;;5.90;99.90;;;;;;5026549;28;20176;-83
2023/11/29 08:45:46;;;;;;;5.80;4.10;;;6.00;99.90;;;;;;5054695;28;20532;-83
2023/11/29 08:48:12;;;;;;;8.90;5.53;;;6.00;99.90;;;;;;5021217;28;20267;-83
2023/11/29 08:50:38;;;;;;;6.10;4.80;;;6.10;99.90;;;;;;5020122;28;21213;-82
2023/11/29 08:53:05;;;;;;;5.30;4.70;;;6.10;99.90;;;;;;5037038;28;20334;-82
2023/11/29 08:55:31;;;;;;;7.13;4.78;;;6.20;99.90;;;;;;5035697;28;20168;-83
2023/11/29 08:57:57;;;;;;;7.50;5.00;;;6.20;99.90;;;;;;5052752;28;20176;-83
2023/11/29 09:00:23;;;;;;;7.00;4.75;;;6.30;99.90;;;;;;5039294;28;20185;-83
2023/11/29 09:02:48;;;;;;;5.13;4.03;;;6.30;99.90;;;;;;5066568;28;20193;-84
2023/11/29 09:05:17;;;;;;;4.17;3.77;;;6.30;99.90;;;;;;5063438;28;20187;-83
2023/11/29 09:07:43;;;;;;;6.00;4.50;;;6.40;99.90;;;;;;5053568;28;20272;-84
2023/11/29 09:10:09;;;;;;;6.30;3.93;;;6.40;99.90;;;;;;5068277;28;20228;-82
2023/11/29 09:12:35;;;;;;;6.50;4.70;;;6.40;99.90;;;;;;5044406;28;20587;-82
2023/11/29 09:15:04;;;;;;;5.70;4.05;;;6.50;99.90;;;;;;5040644;28;20527;-84
2023/11/29 09:17:29;;;;;;;9.10;5.40;;;6.60;99.90;;;;;;5058524;28;20260;-84
2023/11/29 09:19:55;;;;;;;5.03;4.00;;;6.60;99.90;;;;;;5065128;28;20262;-84
2023/11/29 09:22:24;;;;;;;7.23;4.10;;;6.70;99.90;;;;;;5060725;28;20551;-84
2023/11/29 09:24:50;;;;;;;6.50;3.95;;;6.80;99.90;;;;;;5055711;28;20202;-83
2023/11/29 09:27:17;;;;;;;5.93;4.50;;;6.90;99.90;;;;;;5037803;28;20216;-83
2023/11/29 09:29:43;;;;;;;4.70;3.95;;;7.00;99.90;;;;;;5045583;28;20242;-83
2023/11/29 09:32:09;;;;;;;3.53;2.90;;;7.10;99.90;;;;;;5038077;28;20204;-85
2023/11/29 09:34:34;;;;;;;4.73;4.30;;;7.20;99.90;;;;;;5034874;28;20178;-87
2023/11/29 09:37:00;;;;;;;4.53;3.33;;;7.20;99.90;;;;;;5037315;28;20234;-85
2023/11/29 09:39:29;;;;;;;8.05;4.28;;;7.30;99.90;;;;;;5028658;28;20583;-84
2023/11/29 09:42:02;;;;;;;5.15;4.13;;;7.30;99.90;;;;;;5036736;28;20205;-84
2023/11/29 09:44:28;;;;;;;7.22;4.15;;;7.40;99.90;;;;;;5041248;28;20177;-85
2023/11/29 09:46:54;;;;;;;5.57;4.18;;;7.40;99.90;;;;;;5054275;28;20655;-84
2023/11/29 09:49:21;;;;;;;7.38;3.83;;;7.40;99.90;;;;;;5038466;28;20221;-84
2023/11/29 09:51:46;;;;;;;4.65;3.03;;;7.40;99.90;;;;;;5060476;28;20262;-84
2023/11/29 09:54:13;;;;;;;6.33;4.37;;;7.40;99.90;;;;;;5036055;28;20576;-85
2023/11/29 09:56:39;;;;;;;5.28;4.10;;;7.30;99.90;;;;;;5032997;28;20528;-84
2023/11/29 09:59:04;;;;;;;4.47;3.90;;;7.30;99.90;;;;;;5032139;28;20173;-84
2023/11/29 10:01:45;;;;;;;6.03;4.27;;;7.30;99.90;;;;;;5019046;28;20197;-85
2023/11/29 10:04:11;;;;;;;4.28;3.40;;;7.30;99.90;;;;;;5036862;28;20185;-87
2023/11/29 10:06:36;;;;;;;6.37;4.10;;;7.30;99.90;;;;;;5057277;28;20197;-86
2023/11/29 10:09:11;;;;;;;3.60;3.17;;;7.30;99.90;;;;;;5031705;28;20227;-85
2023/11/29 10:11:37;;;;;;;6.22;3.63;;;7.30;99.90;;;;;;5027640;28;20196;-85
2023/11/29 10:14:06;;;;;;;7.72;3.60;;;7.30;99.90;;;;;;5054274;28;20173;-86
2023/11/29 10:16:33;;;;;;;6.43;3.92;;;7.30;99.90;;;;;;5033611;28;20176;-87
2023/11/29 10:19:03;;;;;;;4.82;3.60;;;7.30;99.90;;;;;;5029669;28;20244;-86
2023/11/29 10:21:29;;;;;;;7.65;3.63;;;7.30;99.90;;;;;;5038349;28;20284;-86
2023/11/29 10:23:55;;;;;;;5.30;3.30;;;7.30;99.90;;;;;;5036292;28;20240;-85
2023/11/29 10:26:22;;;;;;;4.07;3.42;;;7.30;99.90;;;;;;5019632;28;20652;-86
2023/11/29 10:28:48;;;;;;;5.60;3.50;;;7.30;99.90;;;;;;5032745;28;20664;-86
2023/11/29 10:31:16;;;;;;;3.90;3.25;;;7.30;99.90;;;;;;5049459;28;20177;-86
2023/11/29 10:33:45;;;;;;;3.35;3.05;;;7.30;99.90;;;;;;5019046;28;20173;-85
2023/11/29 10:36:12;;;;;;;3.55;3.25;;;7.30;99.90;;;;;;5061130;28;20176;-86
2023/11/29 10:38:42;;;;;;;5.78;3.40;;;7.30;99.90;;;;;;5019167;28;20177;-85
2023/11/29 10:41:09;;;;;;;4.63;3.05;;;7.30;99.90;;;;;;5032705;28;20181;-87
2023/11/29 10:43:38;;;;;;;5.20;2.90;;;7.30;99.90;;;;;;5044177;28;20200;-90
2023/11/29 10:46:21;;;;;;;7.20;2.92;;;7.30;99.90;;;;;;5053119;28;20181;-86
2023/11/29 10:48:51;;;;;;;4.35;3.03;;;7.40;99.90;;;;;;5047269;28;20196;-83
2023/11/29 10:51:20;;;;;;;4.35;2.70;;;7.40;99.90;;;;;;5032108;28;20201;-84
2023/11/29 10:53:47;;;;;;;4.85;3.00;;;7.40;99.90;;;;;;5043063;28;20180;-84
2023/11/29 10:56:13;;;;;;;4.97;3.65;;;7.40;99.90;;;;;;5037844;28;20180;-82
2023/11/29 10:58:48;;;;;;;5.10;4.30;;;7.50;99.90;;;;;;5042886;28;20173;-83
2023/11/29 11:01:13;;;;;;;5.55;4.05;;;7.40;99.90;;;;;;5045330;28;20189;-87
2023/11/29 11:03:49;;;;;;;4.87;3.33;;;7.50;99.90;;;;;;5020311;28;20633;-83
2023/11/29 11:06:24;;;;;;;5.80;3.85;;;7.50;99.90;;;;;;5034153;28;20280;-85
2023/11/29 11:08:50;;;;;;;3.50;3.13;;;7.50;99.90;;;;;;5033166;28;20678;-84
2023/11/29 11:11:44;;;;;;;5.70;3.58;;;7.60;99.90;;;;;;5032950;28;20193;-85
2023/11/29 11:14:20;;;;;;;5.25;3.33;;;7.70;99.90;;;;;;5051295;28;20177;-84
2023/11/29 11:17:06;;;;;;;4.38;3.15;;;7.70;99.90;;;;;;5038305;28;20273;-84
2023/11/29 11:19:46;;;;;;;5.40;3.40;;;7.80;99.90;;;;;;5050038;28;20169;-84
2023/11/29 11:22:26;;;;;;;4.57;3.38;;;7.90;99.90;;;;;;5052403;28;20860;-84
2023/11/29 11:25:05;;;;;;;5.15;3.42;;;8.00;99.90;;;;;;5031589;28;20185;-84
2023/11/29 11:27:33;;;;;;;5.60;3.30;;;8.00;99.90;;;;;;5051654;28;20180;-82
2023/11/29 11:30:04;;;;;;;12.07;3.33;;;8.00;99.90;;;;;;5034486;28;20204;-81
2023/11/29 11:32:42;;;;;;;7.13;3.70;;;8.10;99.90;;;;;;5034297;28;20197;-83
2023/11/29 11:35:25;;;;;;;5.18;3.42;;;8.10;99.90;;;;;;5071657;28;20582;-84
2023/11/29 11:37:56;;;;;;;4.20;3.15;;;8.00;99.90;;;;;;5036216;28;20189;-84
2023/11/29 11:40:28;;;;;;;5.50;3.33;;;8.00;99.90;;;;;;5054131;28;20234;-84
2023/11/29 11:42:54;;;;;;;6.18;3.60;;;7.90;99.90;;;;;;5035143;28;20204;-83
2023/11/29 11:45:21;;;;;;;6.78;4.53;;;7.80;99.90;;;;;;5038031;28;20185;-83
2023/11/29 11:47:47;;;;;;;4.32;3.15;;;7.80;99.90;;;;;;5059663;28;20257;-84
2023/11/29 11:50:14;;;;;;;4.47;3.28;;;7.60;99.90;;;;;;5056960;28;20266;-84
2023/11/29 11:52:40;;;;;;;4.95;3.85;;;7.60;99.90;;;;;;5051587;28;20269;-84
2023/11/29 11:55:12;;;;;;;3.38;2.78;;;7.50;99.90;;;;;;5052176;28;20257;-84
2023/11/29 11:57:43;;;;;;;4.43;2.95;;;7.50;99.90;;;;;;5051728;28;20263;-83
2023/11/29 12:00:10;;;;;;;5.13;2.88;;;7.40;99.90;;;;;;5033846;28;20185;-84
2023/11/29 12:02:36;;;;;;;5.68;3.03;;;7.40;99.90;;;;;;5051118;28;20287;-83
2023/11/29 12:05:03;;;;;;;4.50;3.10;;;7.30;99.90;;;;;;5034444;28;20718;-84
2023/11/29 12:07:30;;;;;;;6.70;2.58;;;7.30;99.90;;;;;;5033698;28;20315;-83
2023/11/29 12:09:55;;;;;;;4.10;2.60;;;7.30;99.90;;;;;;5050813;28;20200;-83
2023/11/29 12:12:21;;;;;;;3.87;2.50;;;7.30;99.90;;;;;;5039099;28;20348;-84
2023/11/29 12:14:51;;;;;;;3.22;1.80;;;7.20;99.90;;;;;;5042384;28;20173;-83
2023/11/29 12:17:18;;;;;;;3.33;2.03;;;7.20;99.90;;;;;;5039337;28;20168;-84
2023/11/29 12:19:48;;;;;;;5.70;3.50;;;7.10;99.90;;;;;;5054163;28;20218;-83
2023/11/29 12:22:15;;;;;;;4.00;2.58;;;7.10;99.90;;;;;;5067828;28;20200;-83
2023/11/29 12:24:46;;;;;;;3.72;2.20;;;7.10;99.90;;;;;;5052381;28;20192;-83
2023/11/29 12:27:14;;;;;;;3.85;1.95;;;7.10;99.90;;;;;;5034479;28;20181;-84
2023/11/29 12:29:46;;;;;;;3.28;2.50;;;7.00;99.90;;;;;;5033927;28;20215;-83
2023/11/29 12:32:12;;;;;;;4.65;2.45;;;7.00;99.90;;;;;;5024672;28;20207;-83
2023/11/29 12:34:38;;;;;;;3.72;2.80;;;7.10;99.90;;;;;;5051513;28;20181;-85
2023/11/29 12:37:05;;;;;;;3.85;2.28;;;7.10;99.90;;;;;;5033517;28;20304;-83
2023/11/29 12:39:33;;;;;;;3.13;2.83;;;7.10;99.90;;;;;;5033632;28;20184;-84
2023/11/29 12:42:05;;;;;;;6.03;4.03;;;7.10;99.90;;;;;;5050469;28;20189;-82
2023/11/29 12:44:34;;;;;;;3.35;2.47;;;7.10;99.90;;;;;;5051345;28;20177;-84
2023/11/29 12:47:00;;;;;;;4.38;2.75;;;7.10;99.90;;;;;;5051444;28;20168;-83
2023/11/29 12:49:27;;;;;;;4.03;3.25;;;7.10;99.90;;;;;;5054189;28;20287;-84
2023/11/29 12:51:52;;;;;;;3.53;2.53;;;7.10;99.90;;;;;;5033085;28;20258;-84
2023/11/29 12:54:18;;;;;;;5.10;3.37;;;7.00;99.90;;;;;;5033030;28;20180;-84
2023/11/29 12:56:44;;;;;;;5.77;3.20;;;7.00;99.90;;;;;;5033260;28;20200;-84
2023/11/29 12:59:10;;;;;;;3.80;3.07;;;7.00;99.90;;;;;;5032945;28;20649;-84